createdAt,value
2023-04-27T00:00:16.798Z,51.10
2023-04-27T00:02:18.320Z,51.39
2023-04-27T00:04:20.691Z,51.77
2023-04-27T00:06:22.237Z,51.86
2023-04-27T00:08:23.588Z,51.89
2023-04-27T00:10:24.893Z,52.36
2023-04-27T00:12:26.215Z,52.59
2023-04-27T00:14:28.774Z,52.62
2023-04-27T00:16:30.150Z,52.50
2023-04-27T00:18:31.475Z,52.57
2023-04-27T00:20:33.911Z,52.07
2023-04-27T00:22:35.244Z,52.41
2023-04-27T00:24:36.577Z,52.85
2023-04-27T00:26:37.882Z,52.27
2023-04-27T00:28:39.170Z,52.99
2023-04-27T00:30:40.642Z,53.09
2023-04-27T00:32:42.649Z,53.09
2023-04-27T00:34:44.009Z,52.94
2023-04-27T00:36:45.366Z,53.75
2023-04-27T00:38:46.663Z,54.13
2023-04-27T00:40:47.995Z,53.91
2023-04-27T00:42:49.311Z,53.95
2023-04-27T00:44:50.775Z,54.29
2023-04-27T00:46:52.255Z,54.14
2023-04-27T00:48:53.549Z,54.36
2023-04-27T00:50:54.856Z,54.24
2023-04-27T00:52:56.702Z,53.47
2023-04-27T00:54:58.001Z,54.11
2023-04-27T00:56:59.706Z,53.52
2023-04-27T00:59:01.029Z,53.67
2023-04-27T01:01:03.779Z,52.92
2023-04-27T01:03:05.226Z,53.62
2023-04-27T01:05:07.198Z,53.49
2023-04-27T01:07:08.574Z,54.16
2023-04-27T01:09:11.078Z,53.92
2023-04-27T01:11:12.485Z,54.10
2023-04-27T01:13:13.787Z,54.15
2023-04-27T01:15:15.120Z,54.01
2023-04-27T01:17:18.343Z,54.31
2023-04-27T01:19:19.668Z,54.99
2023-04-27T01:21:21.400Z,55.27
2023-04-27T01:23:23.831Z,54.97
2023-04-27T01:25:25.216Z,55.38
2023-04-27T01:27:26.525Z,55.31
2023-04-27T01:29:28.020Z,55.47
2023-04-27T01:31:29.375Z,56.02
2023-04-27T01:33:30.696Z,56.21
2023-04-27T01:35:32.156Z,56.72
2023-04-27T01:37:33.458Z,56.56
2023-04-27T01:39:34.788Z,57.17
2023-04-27T01:41:36.134Z,56.90
2023-04-27T01:43:37.405Z,56.49
2023-04-27T01:45:38.767Z,56.57
2023-04-27T01:47:40.152Z,56.36
2023-04-27T01:49:41.544Z,56.58
2023-04-27T01:51:42.851Z,56.67
2023-04-27T01:53:44.152Z,56.20
2023-04-27T01:55:45.482Z,56.61
2023-04-27T01:57:46.915Z,56.76
2023-04-27T01:59:48.211Z,56.52
2023-04-27T02:01:49.553Z,56.38
2023-04-27T02:03:51.199Z,56.54
2023-04-27T02:05:52.567Z,55.64
2023-04-27T02:07:54.003Z,56.98
2023-04-27T02:09:55.452Z,56.24
2023-04-27T02:11:56.756Z,56.34
2023-04-27T02:13:58.088Z,56.52
2023-04-27T02:16:02.089Z,56.42
2023-04-27T02:18:03.612Z,56.32
2023-04-27T02:20:07.025Z,56.44
2023-04-27T02:22:08.320Z,56.77
2023-04-27T02:24:09.693Z,56.45
2023-04-27T02:26:11.857Z,56.43
2023-04-27T02:28:13.892Z,56.63
2023-04-27T02:30:15.633Z,56.68
2023-04-27T02:32:17.378Z,56.81
2023-04-27T02:34:18.683Z,56.58
2023-04-27T02:36:20.021Z,56.81
2023-04-27T02:38:21.348Z,56.92
2023-04-27T02:40:22.667Z,56.31
2023-04-27T02:42:23.964Z,56.37
2023-04-27T02:44:25.610Z,56.62
2023-04-27T02:46:27.454Z,56.34
2023-04-27T02:48:28.893Z,56.72
2023-04-27T02:50:30.194Z,57.12
2023-04-27T02:52:31.572Z,56.63
2023-04-27T02:54:32.916Z,56.97
2023-04-27T02:56:34.231Z,57.03
2023-04-27T02:58:35.669Z,57.13
2023-04-27T03:00:37.425Z,57.58
2023-04-27T03:02:38.787Z,57.72
2023-04-27T03:04:40.402Z,56.97
2023-04-27T03:06:41.795Z,57.77
2023-04-27T03:08:43.149Z,57.81
2023-04-27T03:10:44.554Z,57.45
2023-04-27T03:12:45.947Z,57.56
2023-04-27T03:14:47.240Z,57.96
2023-04-27T03:16:51.960Z,57.73
2023-04-27T03:18:53.267Z,57.59
2023-04-27T03:20:54.614Z,57.39
2023-04-27T03:22:55.936Z,57.30
2023-04-27T03:24:57.256Z,57.54
2023-04-27T03:26:58.616Z,57.78
2023-04-27T03:28:59.938Z,57.91
2023-04-27T03:31:02.204Z,57.97
2023-04-27T03:33:03.787Z,57.36
2023-04-27T03:35:05.187Z,57.11
2023-04-27T03:37:06.650Z,56.88
2023-04-27T03:39:08.180Z,57.10
2023-04-27T03:41:09.502Z,56.89
2023-04-27T03:43:10.952Z,56.71
2023-04-27T03:45:12.375Z,56.62
2023-04-27T03:47:13.816Z,56.85
2023-04-27T03:49:15.329Z,57.09
2023-04-27T03:51:16.877Z,57.28
2023-04-27T03:53:18.167Z,57.72
2023-04-27T03:55:19.472Z,56.90
2023-04-27T03:57:21.547Z,56.91
2023-04-27T03:59:22.834Z,56.70
2023-04-27T04:01:24.944Z,56.57
2023-04-27T04:03:26.481Z,56.57
2023-04-27T04:05:27.955Z,56.62
2023-04-27T04:07:29.259Z,56.53
2023-04-27T04:09:30.616Z,56.67
2023-04-27T04:11:31.958Z,56.96
2023-04-27T04:13:33.366Z,56.60
2023-04-27T04:15:34.712Z,57.00
2023-04-27T04:17:36.117Z,57.02
2023-04-27T04:19:37.421Z,56.92
2023-04-27T04:21:38.738Z,57.09
2023-04-27T04:23:41.223Z,56.54
2023-04-27T04:25:43.272Z,57.23
2023-04-27T04:27:45.001Z,57.18
2023-04-27T04:29:46.340Z,57.41
2023-04-27T04:31:47.759Z,57.24
2023-04-27T04:33:49.215Z,57.30
2023-04-27T04:35:50.524Z,57.07
2023-04-27T04:37:51.828Z,57.49
2023-04-27T04:39:53.150Z,57.28
2023-04-27T04:41:54.606Z,57.90
2023-04-27T04:43:56.070Z,57.71
2023-04-27T04:45:57.382Z,57.38
2023-04-27T04:48:01.037Z,57.28
2023-04-27T04:50:02.580Z,57.37
2023-04-27T04:52:06.686Z,57.36
2023-04-27T04:54:08.020Z,57.36
2023-04-27T04:56:09.335Z,57.12
2023-04-27T04:58:10.786Z,57.21
2023-04-27T05:00:13.318Z,56.96
2023-04-27T05:02:14.710Z,56.50
2023-04-27T05:04:16.409Z,56.93
2023-04-27T05:06:17.837Z,56.63
2023-04-27T05:08:19.133Z,56.67
2023-04-27T05:10:20.437Z,56.47
2023-04-27T05:12:24.760Z,56.26
2023-04-27T05:14:26.108Z,56.35
2023-04-27T05:16:27.629Z,55.96
2023-04-27T05:18:28.963Z,56.20
2023-04-27T05:20:30.374Z,55.98
2023-04-27T05:22:31.671Z,55.89
2023-04-27T05:24:33.013Z,56.06
2023-04-27T05:26:34.315Z,56.08
2023-04-27T05:28:35.748Z,56.55
2023-04-27T05:30:37.076Z,56.74
2023-04-27T05:32:38.592Z,56.72
2023-04-27T05:34:41.146Z,57.08
2023-04-27T05:36:42.557Z,57.32
2023-04-27T05:38:43.891Z,57.30
2023-04-27T05:40:45.209Z,57.26
2023-04-27T05:42:46.540Z,57.07
2023-04-27T05:44:47.838Z,57.30
2023-04-27T05:46:49.136Z,57.71
2023-04-27T05:48:50.785Z,57.30
2023-04-27T05:50:52.109Z,57.65
2023-04-27T05:52:53.398Z,58.18
2023-04-27T05:54:54.748Z,57.98
2023-04-27T05:56:56.222Z,57.91
2023-04-27T05:58:57.574Z,57.77
2023-04-27T06:00:58.918Z,57.71
2023-04-27T06:03:00.363Z,57.71
2023-04-27T06:05:02.341Z,58.10
2023-04-27T06:07:04.222Z,58.21
2023-04-27T06:09:05.525Z,57.85
2023-04-27T06:11:07.020Z,57.96
2023-04-27T06:13:08.350Z,58.17
2023-04-27T06:15:09.952Z,58.23
2023-04-27T06:17:11.261Z,58.06
2023-04-27T06:19:12.832Z,57.90
2023-04-27T06:21:14.381Z,57.81
2023-04-27T06:23:15.764Z,57.85
2023-04-27T06:25:17.085Z,57.14
2023-04-27T06:27:18.490Z,56.60
2023-04-27T06:29:19.791Z,56.57
2023-04-27T06:31:21.123Z,56.96
2023-04-27T06:33:22.556Z,56.82
2023-04-27T06:35:23.916Z,56.57
2023-04-27T06:37:25.414Z,56.46
2023-04-27T06:39:26.734Z,56.70
2023-04-27T06:41:28.030Z,56.27
2023-04-27T06:43:29.314Z,56.28
2023-04-27T06:45:30.635Z,56.48
2023-04-27T06:47:31.932Z,56.15
2023-04-27T06:49:33.305Z,56.14
2023-04-27T06:51:34.602Z,56.55
2023-04-27T06:53:36.255Z,56.18
2023-04-27T06:55:37.646Z,56.30
2023-04-27T06:57:39.016Z,56.18
2023-04-27T06:59:40.380Z,56.49
2023-04-27T07:01:41.847Z,56.65
2023-04-27T07:03:43.401Z,56.56
2023-04-27T07:05:44.825Z,56.55
2023-04-27T07:07:46.114Z,55.91
2023-04-27T07:09:47.411Z,56.32
2023-04-27T07:11:48.713Z,55.90
2023-04-27T07:13:49.995Z,56.20
2023-04-27T07:15:51.341Z,55.83
2023-04-27T07:17:55.917Z,56.13
2023-04-27T07:19:57.271Z,55.44
2023-04-27T07:21:58.623Z,55.70
2023-04-27T07:23:59.946Z,56.01
2023-04-27T07:26:02.202Z,55.41
2023-04-27T07:28:04.370Z,55.11
2023-04-27T07:30:07.216Z,54.95
2023-04-27T07:32:08.816Z,54.15
2023-04-27T07:34:11.339Z,54.28
2023-04-27T07:36:12.642Z,53.72
2023-04-27T07:38:13.952Z,53.63
2023-04-27T07:40:16.782Z,53.97
2023-04-27T07:42:18.558Z,54.03
2023-04-27T07:44:20.027Z,53.50
2023-04-27T07:46:21.810Z,53.46
2023-04-27T07:48:24.625Z,52.91
2023-04-27T07:50:26.255Z,53.18
2023-04-27T07:52:27.583Z,53.00
2023-04-27T07:54:29.003Z,52.55
2023-04-27T07:56:30.449Z,52.36
2023-04-27T07:58:31.832Z,52.12
2023-04-27T08:00:33.699Z,52.26
2023-04-27T08:02:35.124Z,52.08
2023-04-27T08:04:37.077Z,52.15
2023-04-27T08:06:39.347Z,52.15
2023-04-27T08:08:40.848Z,52.34
2023-04-27T08:10:42.970Z,52.70
2023-04-27T08:12:44.381Z,52.33
2023-04-27T08:14:45.852Z,52.29
2023-04-27T08:16:47.173Z,52.37
2023-04-27T08:18:48.516Z,52.54
2023-04-27T08:20:49.868Z,52.76
2023-04-27T08:22:51.168Z,52.68
2023-04-27T08:24:52.460Z,53.50
2023-04-27T08:26:53.764Z,53.17
2023-04-27T08:28:57.431Z,53.69
2023-04-27T08:30:58.868Z,53.67
2023-04-27T08:33:00.321Z,53.64
2023-04-27T08:35:01.684Z,53.96
2023-04-27T08:37:04.388Z,54.25
2023-04-27T08:39:07.756Z,53.98
2023-04-27T08:41:20.689Z,54.40
2023-04-27T08:43:23.332Z,54.11
2023-04-27T08:45:24.679Z,54.15
2023-04-27T08:47:35.086Z,54.12
2023-04-27T08:49:43.743Z,54.09
2023-04-27T08:51:45.087Z,54.23
2023-04-27T08:53:46.763Z,54.31
2023-04-27T08:55:48.093Z,54.49
2023-04-27T08:57:49.428Z,54.25
2023-04-27T08:59:50.752Z,54.27
2023-04-27T09:01:52.071Z,54.56
2023-04-27T09:03:53.516Z,54.24
2023-04-27T09:06:04.589Z,54.42
2023-04-27T09:08:08.243Z,54.24
2023-04-27T09:10:09.674Z,54.16
2023-04-27T09:12:11.419Z,54.13
2023-04-27T09:14:12.735Z,53.89
2023-04-27T09:16:14.614Z,54.28
2023-04-27T09:18:16.452Z,53.82
2023-04-27T09:20:18.815Z,53.92
2023-04-27T09:22:22.906Z,53.61
2023-04-27T09:24:24.422Z,53.73
2023-04-27T09:26:25.966Z,53.50
2023-04-27T09:28:31.048Z,53.37
2023-04-27T09:30:32.524Z,53.37
2023-04-27T09:32:33.865Z,52.88
2023-04-27T09:34:35.213Z,53.38
2023-04-27T09:36:36.515Z,52.95
2023-04-27T09:38:37.824Z,52.95
2023-04-27T09:40:40.310Z,53.24
2023-04-27T09:42:41.701Z,52.97
2023-04-27T09:44:43.038Z,53.05
2023-04-27T09:46:45.623Z,53.34
2023-04-27T09:48:46.934Z,53.21
2023-04-27T09:50:48.252Z,53.01
2023-04-27T09:52:49.658Z,53.60
2023-04-27T09:54:50.951Z,53.59
2023-04-27T09:56:52.249Z,53.36
2023-04-27T09:58:54.114Z,53.50
2023-04-27T10:00:55.912Z,53.59
2023-04-27T10:02:57.644Z,53.84
2023-04-27T10:04:59.168Z,53.80
2023-04-27T10:07:02.286Z,53.91
2023-04-27T10:09:06.400Z,53.89
2023-04-27T10:11:07.738Z,53.52
2023-04-27T10:13:09.110Z,53.89
2023-04-27T10:15:10.457Z,53.63
2023-04-27T10:17:11.972Z,53.81
2023-04-27T10:19:13.897Z,53.89
2023-04-27T10:21:15.924Z,53.65
2023-04-27T10:23:17.244Z,53.76
2023-04-27T10:25:28.216Z,54.11
2023-04-27T10:27:29.548Z,54.11
2023-04-27T10:29:30.914Z,53.90
2023-04-27T10:31:33.009Z,53.91
2023-04-27T10:33:34.416Z,53.88
2023-04-27T10:35:35.877Z,53.93
2023-04-27T10:37:37.170Z,53.86
2023-04-27T10:39:48.502Z,54.05
2023-04-27T10:41:51.752Z,53.72
2023-04-27T10:43:53.058Z,53.89
2023-04-27T10:45:54.420Z,53.74
2023-04-27T10:47:55.850Z,54.03
2023-04-27T10:49:57.184Z,54.07
2023-04-27T10:51:58.562Z,53.49
2023-04-27T10:53:59.952Z,53.27
2023-04-27T10:56:01.266Z,53.34
2023-04-27T10:58:02.669Z,53.37
2023-04-27T11:00:05.263Z,53.58
2023-04-27T11:02:06.603Z,53.46
2023-04-27T11:04:07.974Z,53.24
2023-04-27T11:06:09.366Z,53.02
2023-04-27T11:08:10.726Z,53.09
2023-04-27T11:10:12.202Z,53.18
2023-04-27T11:12:14.004Z,52.58
2023-04-27T11:14:16.517Z,52.92
2023-04-27T11:16:19.488Z,52.99
2023-04-27T11:18:20.911Z,52.83
2023-04-27T11:20:23.151Z,52.58
2023-04-27T11:22:24.451Z,52.53
2023-04-27T11:24:25.751Z,52.73
2023-04-27T11:26:27.404Z,53.21
2023-04-27T11:28:28.737Z,52.57
2023-04-27T11:30:30.087Z,52.99
2023-04-27T11:32:31.953Z,52.89
2023-04-27T11:34:38.924Z,52.78
2023-04-27T11:36:40.215Z,53.07
2023-04-27T11:38:41.583Z,53.14
2023-04-27T11:40:43.054Z,53.00
2023-04-27T11:42:47.110Z,52.66
2023-04-27T11:44:48.417Z,52.83
2023-04-27T11:46:49.823Z,52.88
2023-04-27T11:48:51.391Z,52.92
2023-04-27T11:50:53.499Z,52.90
2023-04-27T11:52:55.948Z,52.58
2023-04-27T11:54:57.415Z,52.69
2023-04-27T11:56:58.719Z,53.08
2023-04-27T11:59:00.015Z,53.13
2023-04-27T12:01:02.269Z,53.39
2023-04-27T12:03:03.833Z,53.29
2023-04-27T12:05:06.225Z,53.46
2023-04-27T12:07:08.747Z,53.36
2023-04-27T12:09:10.216Z,53.63
2023-04-27T12:11:11.547Z,53.78
2023-04-27T12:13:12.925Z,53.50
2023-04-27T12:15:14.272Z,53.50
2023-04-27T12:17:15.985Z,53.15
2023-04-27T12:19:17.536Z,52.76
2023-04-27T12:21:18.996Z,53.16
2023-04-27T12:23:20.375Z,53.19
2023-04-27T12:25:21.704Z,53.01
2023-04-27T12:27:23.114Z,53.10
2023-04-27T12:29:24.652Z,53.21
2023-04-27T12:31:27.880Z,53.38
2023-04-27T12:33:29.366Z,53.03
2023-04-27T12:35:32.167Z,53.02
2023-04-27T12:37:33.765Z,52.98
2023-04-27T12:39:35.058Z,53.12
2023-04-27T12:41:36.662Z,52.78
2023-04-27T12:43:38.303Z,53.11
2023-04-27T12:45:39.861Z,52.75
2023-04-27T12:47:58.229Z,52.82
2023-04-27T12:50:02.758Z,52.97
2023-04-27T12:52:04.097Z,52.74
2023-04-27T12:54:05.534Z,52.78
2023-04-27T12:56:07.000Z,52.86
2023-04-27T12:58:08.426Z,53.19
2023-04-27T13:00:10.707Z,53.19
2023-04-27T13:02:12.007Z,52.87
2023-04-27T13:04:13.641Z,53.04
2023-04-27T13:06:15.337Z,52.74
2023-04-27T13:08:17.072Z,52.92
2023-04-27T13:10:18.381Z,52.73
2023-04-27T13:12:19.732Z,52.97
2023-04-27T13:14:21.201Z,52.90
2023-04-27T13:16:24.687Z,53.04
2023-04-27T13:18:26.381Z,52.55
2023-04-27T13:20:27.766Z,52.62
2023-04-27T13:22:29.087Z,52.39
2023-04-27T13:24:30.389Z,52.94
2023-04-27T13:26:31.728Z,52.43
2023-04-27T13:28:33.035Z,52.69
2023-04-27T13:30:34.377Z,52.39
2023-04-27T13:32:35.745Z,52.38
2023-04-27T13:34:37.075Z,52.58
2023-04-27T13:36:38.400Z,52.58
2023-04-27T13:38:39.796Z,52.21
2023-04-27T13:40:41.203Z,52.23
2023-04-27T13:42:42.597Z,52.59
2023-04-27T13:44:43.918Z,53.01
2023-04-27T13:46:45.421Z,52.53
2023-04-27T13:48:46.743Z,52.96
2023-04-27T13:50:48.312Z,53.12
2023-04-27T13:52:49.863Z,52.55
2023-04-27T13:54:51.274Z,52.47
2023-04-27T13:56:52.622Z,52.85
2023-04-27T13:58:53.954Z,52.59
2023-04-27T14:00:55.286Z,52.70
2023-04-27T14:02:56.860Z,52.69
2023-04-27T14:04:58.400Z,52.90
2023-04-27T14:07:00.004Z,52.99
2023-04-27T14:09:01.311Z,52.61
2023-04-27T14:11:02.625Z,53.00
2023-04-27T14:13:03.990Z,52.85
2023-04-27T14:15:05.305Z,52.82
2023-04-27T14:17:06.758Z,52.50
2023-04-27T14:19:08.896Z,52.51
2023-04-27T14:21:10.459Z,52.16
2023-04-27T14:23:11.818Z,52.14
2023-04-27T14:25:13.167Z,51.96
2023-04-27T14:27:14.464Z,52.09
2023-04-27T14:29:16.123Z,52.18
2023-04-27T14:31:17.732Z,52.16
2023-04-27T14:33:19.074Z,51.56
2023-04-27T14:35:20.936Z,51.41
2023-04-27T14:37:22.270Z,51.44
2023-04-27T14:39:23.596Z,52.08
2023-04-27T14:41:24.892Z,52.20
2023-04-27T14:43:26.855Z,52.56
2023-04-27T14:45:36.716Z,52.43
2023-04-27T14:47:45.561Z,52.14
2023-04-27T14:49:46.977Z,52.21
2023-04-27T14:51:48.284Z,52.21
2023-04-27T14:53:49.574Z,52.18
2023-04-27T14:55:50.891Z,52.45
2023-04-27T14:57:52.263Z,52.25
2023-04-27T14:59:53.771Z,52.24
2023-04-27T15:01:55.735Z,52.82
2023-04-27T15:03:58.070Z,52.85
2023-04-27T15:05:59.649Z,52.79
2023-04-27T15:08:02.215Z,52.69
2023-04-27T15:10:04.132Z,52.40
2023-04-27T15:12:07.499Z,52.45
2023-04-27T15:14:08.861Z,52.50
2023-04-27T15:16:10.253Z,52.16
2023-04-27T15:18:11.968Z,52.61
2023-04-27T15:20:16.503Z,52.67
2023-04-27T15:22:17.800Z,52.69
2023-04-27T15:24:19.163Z,52.46
2023-04-27T15:26:20.485Z,52.75
2023-04-27T15:28:21.783Z,52.78
2023-04-27T15:30:23.133Z,52.56
2023-04-27T15:32:29.784Z,52.66
2023-04-27T15:34:31.274Z,52.94
2023-04-27T15:36:33.524Z,52.61
2023-04-27T15:38:34.815Z,52.69
2023-04-27T15:40:36.132Z,52.78
2023-04-27T15:42:37.467Z,52.36
2023-04-27T15:44:38.804Z,52.61
2023-04-27T15:46:40.175Z,52.33
2023-04-27T15:48:41.529Z,52.70
2023-04-27T15:50:42.873Z,52.22
2023-04-27T15:52:44.205Z,52.30
2023-04-27T15:54:45.506Z,52.45
2023-04-27T15:56:46.983Z,52.47
2023-04-27T15:58:48.368Z,52.41
2023-04-27T16:00:49.681Z,52.42
2023-04-27T16:02:51.272Z,52.75
2023-04-27T16:04:56.495Z,52.96
2023-04-27T16:06:58.078Z,52.90
2023-04-27T16:08:59.369Z,52.77
2023-04-27T16:11:03.576Z,53.16
2023-04-27T16:13:04.918Z,52.68
2023-04-27T16:15:08.518Z,52.75
2023-04-27T16:17:11.602Z,52.53
2023-04-27T16:19:13.496Z,52.71
2023-04-27T16:21:15.204Z,53.05
2023-04-27T16:23:17.068Z,52.72
2023-04-27T16:25:18.365Z,53.22
2023-04-27T16:27:20.805Z,52.88
2023-04-27T16:29:22.123Z,53.08
2023-04-27T16:31:23.626Z,53.49
2023-04-27T16:33:25.719Z,52.99
2023-04-27T16:35:29.109Z,53.50
2023-04-27T16:37:30.498Z,53.65
2023-04-27T16:39:32.633Z,53.38
2023-04-27T16:41:33.964Z,53.28
2023-04-27T16:43:35.298Z,53.55
2023-04-27T16:45:36.695Z,53.23
2023-04-27T16:47:38.095Z,53.52
2023-04-27T16:49:39.394Z,53.34
2023-04-27T16:51:40.870Z,53.23
2023-04-27T16:53:42.180Z,53.21
2023-04-27T16:55:43.460Z,53.45
2023-04-27T16:57:47.662Z,53.64
2023-04-27T16:59:48.963Z,53.57
2023-04-27T17:01:51.345Z,53.69
2023-04-27T17:03:53.034Z,53.61
2023-04-27T17:05:54.419Z,53.51
2023-04-27T17:07:55.983Z,53.55
2023-04-27T17:09:57.316Z,53.65
2023-04-27T17:12:01.282Z,53.47
2023-04-27T17:14:02.680Z,53.28
2023-04-27T17:16:11.505Z,53.24
2023-04-27T17:18:12.868Z,52.94
2023-04-27T17:20:14.232Z,52.76
2023-04-27T17:22:18.357Z,53.17
2023-04-27T17:24:19.651Z,53.10
2023-04-27T17:26:21.597Z,53.19
2023-04-27T17:28:22.955Z,53.15
2023-04-27T17:30:24.292Z,53.20
2023-04-27T17:32:26.302Z,53.09
2023-04-27T17:34:27.635Z,53.04
2023-04-27T17:36:31.792Z,52.74
2023-04-27T17:38:33.095Z,52.71
2023-04-27T17:40:34.423Z,51.78
2023-04-27T17:42:35.853Z,51.90
2023-04-27T17:44:39.318Z,51.98
2023-04-27T17:46:40.748Z,51.83
2023-04-27T17:48:43.014Z,41.38
2023-04-27T17:50:44.315Z,40.56
2023-04-27T17:52:47.511Z,42.76
2023-04-27T17:54:48.815Z,42.37
2023-04-27T17:56:50.110Z,43.50
2023-04-27T17:58:51.426Z,43.85
2023-04-27T18:00:58.638Z,44.93
2023-04-27T18:03:00.251Z,45.49
2023-04-27T18:05:04.049Z,46.59
2023-04-27T18:07:05.355Z,47.31
2023-04-27T18:09:06.719Z,46.81
2023-04-27T18:11:08.032Z,46.81
2023-04-27T18:13:09.312Z,47.36
2023-04-27T18:15:10.634Z,47.09
2023-04-27T18:17:14.684Z,48.00
2023-04-27T18:19:23.085Z,47.88
2023-04-27T18:21:27.977Z,48.42
2023-04-27T18:23:29.268Z,48.68
2023-04-27T18:25:30.710Z,48.17
2023-04-27T18:27:33.009Z,48.82
2023-04-27T18:29:34.367Z,48.56
2023-04-27T18:31:36.257Z,48.56
2023-04-27T18:33:37.850Z,48.99
2023-04-27T18:35:39.181Z,49.35
2023-04-27T18:37:40.493Z,49.33
2023-04-27T18:39:42.861Z,49.61
2023-04-27T18:41:44.181Z,49.23
2023-04-27T18:43:48.598Z,48.98
2023-04-27T18:45:49.908Z,49.94
2023-04-27T18:47:51.670Z,49.00
2023-04-27T18:49:53.067Z,49.08
2023-04-27T18:51:54.381Z,49.30
2023-04-27T18:53:55.703Z,49.56
2023-04-27T18:55:57.069Z,49.58
2023-04-27T18:57:58.376Z,49.84
2023-04-27T19:00:00.367Z,50.11
2023-04-27T19:02:02.211Z,50.12
2023-04-27T19:04:03.757Z,50.71
2023-04-27T19:06:05.868Z,50.55
2023-04-27T19:08:07.207Z,50.51
2023-04-27T19:10:14.577Z,50.24
2023-04-27T19:12:16.110Z,50.35
2023-04-27T19:14:19.127Z,49.96
2023-04-27T19:16:20.583Z,50.12
2023-04-27T19:18:21.961Z,50.45
2023-04-27T19:20:23.330Z,50.82
2023-04-27T19:22:24.695Z,50.82
2023-04-27T19:24:26.135Z,50.82
2023-04-27T19:26:29.635Z,51.28
2023-04-27T19:28:34.215Z,51.27
2023-04-27T19:30:35.780Z,51.10
2023-04-27T19:32:37.147Z,50.66
2023-04-27T19:34:38.498Z,51.00
2023-04-27T19:36:39.842Z,50.72
2023-04-27T19:38:41.277Z,50.54
2023-04-27T19:40:45.670Z,50.71
2023-04-27T19:42:46.963Z,51.26
2023-04-27T19:44:51.477Z,51.04
2023-04-27T19:46:52.976Z,50.98
2023-04-27T19:48:54.429Z,51.05
2023-04-27T19:50:55.769Z,50.89
2023-04-27T19:52:57.103Z,50.53
2023-04-27T19:54:59.916Z,51.60
2023-04-27T19:57:01.897Z,51.36
2023-04-27T19:59:03.202Z,51.17
2023-04-27T20:01:04.518Z,51.50
2023-04-27T20:03:07.060Z,50.57
2023-04-27T20:05:11.575Z,51.31
2023-04-27T20:07:13.019Z,51.29
2023-04-27T20:09:17.190Z,51.55
2023-04-27T20:11:18.492Z,51.86
2023-04-27T20:13:20.043Z,51.99
2023-04-27T20:15:21.374Z,51.94
2023-04-27T20:17:25.618Z,52.37
2023-04-27T20:19:27.004Z,52.13
2023-04-27T20:21:29.334Z,51.87
2023-04-27T20:23:30.674Z,51.75
2023-04-27T20:25:32.126Z,51.54
2023-04-27T20:27:33.515Z,51.60
2023-04-27T20:29:34.803Z,51.66
2023-04-27T20:31:36.337Z,51.63
2023-04-27T20:33:37.684Z,51.80
2023-04-27T20:35:39.106Z,51.29
2023-04-27T20:37:41.922Z,51.31
2023-04-27T20:39:43.261Z,52.22
2023-04-27T20:41:44.546Z,51.54
2023-04-27T20:43:45.990Z,51.79
2023-04-27T20:45:47.394Z,51.56
2023-04-27T20:47:48.812Z,51.70
2023-04-27T20:49:50.368Z,52.35
2023-04-27T20:51:51.974Z,52.64
2023-04-27T20:53:53.270Z,52.25
2023-04-27T20:55:54.901Z,52.70
2023-04-27T20:57:56.265Z,51.52
2023-04-27T20:59:57.591Z,51.35
2023-04-27T21:01:58.884Z,51.13
2023-04-27T21:04:00.266Z,51.03
2023-04-27T21:06:01.599Z,51.35
2023-04-27T21:08:02.903Z,52.35
2023-04-27T21:10:06.860Z,52.11
2023-04-27T21:12:08.719Z,52.48
2023-04-27T21:14:10.013Z,52.35
2023-04-27T21:16:11.458Z,52.66
2023-04-27T21:18:22.409Z,53.04
2023-04-27T21:20:30.047Z,53.14
2023-04-27T21:22:31.389Z,53.30
2023-04-27T21:24:32.793Z,53.04
2023-04-27T21:26:34.150Z,53.28
2023-04-27T21:28:35.465Z,53.58
2023-04-27T21:30:36.806Z,53.47
2023-04-27T21:32:38.266Z,53.22
2023-04-27T21:34:39.620Z,53.93
2023-04-27T21:36:41.016Z,53.92
2023-04-27T21:38:42.306Z,53.74
2023-04-27T21:40:43.643Z,53.96
2023-04-27T21:42:44.944Z,54.09
2023-04-27T21:44:47.135Z,53.76
2023-04-27T21:46:48.481Z,53.82
2023-04-27T21:48:49.850Z,53.76
2023-04-27T21:50:51.140Z,54.00
2023-04-27T21:52:52.446Z,53.47
2023-04-27T21:54:53.856Z,53.61
2023-04-27T21:56:55.152Z,53.42
2023-04-27T21:58:56.487Z,54.06
2023-04-27T22:00:57.809Z,54.14
2023-04-27T22:02:59.260Z,53.67
2023-04-27T22:05:00.884Z,53.19
2023-04-27T22:07:02.455Z,53.47
2023-04-27T22:09:04.754Z,53.68
2023-04-27T22:11:07.972Z,53.57
2023-04-27T22:13:18.807Z,53.80
2023-04-27T22:15:21.248Z,53.99
2023-04-27T22:17:22.568Z,54.53
2023-04-27T22:19:25.140Z,54.21
2023-04-27T22:21:28.885Z,54.84
2023-04-27T22:23:31.193Z,54.59
2023-04-27T22:25:32.528Z,54.74
2023-04-27T22:27:42.138Z,54.99
2023-04-27T22:29:46.089Z,55.07
2023-04-27T22:31:47.449Z,54.88
2023-04-27T22:33:48.785Z,54.78
2023-04-27T22:35:50.130Z,55.00
2023-04-27T22:37:51.490Z,55.20
2023-04-27T22:39:52.785Z,55.52
2023-04-27T22:41:54.115Z,55.27
2023-04-27T22:43:55.609Z,55.38
2023-04-27T22:45:56.955Z,55.34
2023-04-27T22:47:58.307Z,55.20
2023-04-27T22:50:02.199Z,55.19
2023-04-27T22:52:04.163Z,55.26
2023-04-27T22:54:05.662Z,55.47
2023-04-27T22:56:07.068Z,55.13
2023-04-27T22:58:08.359Z,55.06
2023-04-27T23:00:11.277Z,55.28
2023-04-27T23:02:13.042Z,55.06
2023-04-27T23:04:15.660Z,54.81
2023-04-27T23:06:17.546Z,54.99
2023-04-27T23:08:18.850Z,54.74
2023-04-27T23:10:20.147Z,55.48
2023-04-27T23:12:22.048Z,55.59
2023-04-27T23:14:23.354Z,55.89
2023-04-27T23:16:25.844Z,54.67
2023-04-27T23:18:27.296Z,55.14
2023-04-27T23:20:29.297Z,55.44
2023-04-27T23:22:30.814Z,55.19
2023-04-27T23:24:32.140Z,55.81
2023-04-27T23:26:33.437Z,55.92
2023-04-27T23:28:34.833Z,55.92
2023-04-27T23:30:36.484Z,56.34
2023-04-27T23:32:37.824Z,56.46
2023-04-27T23:34:39.354Z,56.33
2023-04-27T23:36:41.805Z,56.44
2023-04-27T23:38:43.144Z,57.02
2023-04-27T23:40:44.521Z,57.17
2023-04-27T23:42:45.839Z,57.00
2023-04-27T23:44:47.148Z,57.05
2023-04-27T23:46:48.458Z,57.31
2023-04-27T23:48:49.800Z,58.08
2023-04-27T23:50:51.137Z,57.58
2023-04-27T23:52:52.435Z,57.76
2023-04-27T23:54:53.793Z,58.24
2023-04-27T23:56:55.104Z,58.05
2023-04-27T23:58:56.446Z,58.77
